createdAt,value
2023-03-20T00:00:51.631Z,24.10
2023-03-20T00:03:18.666Z,26.63
2023-03-20T00:05:45.307Z,23.70
2023-03-20T00:08:12.907Z,26.47
2023-03-20T00:10:42.168Z,34.70
2023-03-20T00:13:24.895Z,19.30
2023-03-20T00:15:51.808Z,23.10
2023-03-20T00:18:23.271Z,44.20
2023-03-20T00:20:50.902Z,27.33
2023-03-20T00:23:17.904Z,20.60
2023-03-20T00:25:45.976Z,18.97
2023-03-20T00:28:40.927Z,23.00
2023-03-20T00:31:26.985Z,25.13
2023-03-20T00:33:56.171Z,25.93
2023-03-20T00:36:23.354Z,18.93
2023-03-20T00:38:50.487Z,22.57
2023-03-20T00:41:24.240Z,29.07
2023-03-20T00:43:53.735Z,17.30
2023-03-20T00:46:20.686Z,15.43
2023-03-20T00:48:47.563Z,30.07
2023-03-20T00:51:14.332Z,26.60
2023-03-20T00:53:40.912Z,22.00
2023-03-20T00:56:09.544Z,20.23
2023-03-20T00:58:36.956Z,25.13
2023-03-20T01:01:04.089Z,23.10
2023-03-20T01:03:32.359Z,23.00
2023-03-20T01:05:58.884Z,19.07
2023-03-20T01:08:26.634Z,20.50
2023-03-20T01:10:58.205Z,20.13
2023-03-20T01:13:29.294Z,18.60
2023-03-20T01:15:58.144Z,17.67
2023-03-20T01:18:26.112Z,18.80
2023-03-20T01:20:53.277Z,23.57
2023-03-20T01:23:23.138Z,21.27
2023-03-20T01:25:51.449Z,19.97
2023-03-20T01:28:21.613Z,23.00
2023-03-20T01:30:48.530Z,19.10
2023-03-20T01:33:21.088Z,24.50
2023-03-20T01:35:48.763Z,20.33
2023-03-20T01:38:20.429Z,20.63
2023-03-20T01:41:19.175Z,18.40
2023-03-20T01:43:46.119Z,18.43
2023-03-20T01:46:19.817Z,19.43
2023-03-20T01:48:52.632Z,21.87
2023-03-20T01:51:21.489Z,23.33
2023-03-20T01:53:52.105Z,20.53
2023-03-20T01:56:20.565Z,22.50
2023-03-20T01:58:54.409Z,20.27
2023-03-20T02:01:21.073Z,23.10
2023-03-20T02:03:49.293Z,21.70
2023-03-20T02:06:16.329Z,25.60
2023-03-20T02:08:47.497Z,22.53
2023-03-20T02:11:15.557Z,20.67
2023-03-20T02:13:42.947Z,15.27
2023-03-20T02:16:15.038Z,21.33
2023-03-20T02:18:43.793Z,19.10
2023-03-20T02:21:16.152Z,21.80
2023-03-20T02:24:07.294Z,21.53
2023-03-20T02:27:06.335Z,29.80
2023-03-20T02:29:58.009Z,24.70
2023-03-20T02:32:53.654Z,20.00
2023-03-20T02:35:39.391Z,23.10
2023-03-20T02:38:12.046Z,22.00
2023-03-20T02:40:56.857Z,22.00
2023-03-20T02:43:29.406Z,26.10
2023-03-20T02:46:01.953Z,20.47
2023-03-20T02:49:11.430Z,27.50
2023-03-20T02:51:48.091Z,21.80
2023-03-20T02:54:17.573Z,20.87
2023-03-20T02:56:59.693Z,22.77
2023-03-20T02:59:37.892Z,22.17
2023-03-20T03:02:08.406Z,24.53
2023-03-20T03:04:38.572Z,19.33
2023-03-20T03:07:06.735Z,20.00
2023-03-20T03:09:52.862Z,20.63
2023-03-20T03:12:27.431Z,23.30
2023-03-20T03:14:56.540Z,22.87
2023-03-20T03:17:25.857Z,21.93
2023-03-20T03:19:56.711Z,43.83
2023-03-20T03:22:24.409Z,26.03
2023-03-20T03:24:52.729Z,21.30
2023-03-20T03:27:49.527Z,23.53
2023-03-20T03:30:26.299Z,21.60
2023-03-20T03:33:17.168Z,22.37
2023-03-20T03:35:44.017Z,25.23
2023-03-20T03:38:35.588Z,20.93
2023-03-20T03:41:08.236Z,23.50
2023-03-20T03:43:46.142Z,26.50
2023-03-20T03:46:20.069Z,24.07
2023-03-20T03:48:54.269Z,16.53
2023-03-20T03:51:24.039Z,17.77
2023-03-20T03:54:04.121Z,19.90
2023-03-20T03:56:31.837Z,21.67
2023-03-20T03:59:05.446Z,25.73
2023-03-20T04:01:35.588Z,30.60
2023-03-20T04:04:05.467Z,24.23
2023-03-20T04:06:32.148Z,22.83
2023-03-20T04:08:58.828Z,23.77
2023-03-20T04:11:28.577Z,17.50
2023-03-20T04:13:56.054Z,20.03
2023-03-20T04:16:24.049Z,20.23
2023-03-20T04:18:51.008Z,19.67
2023-03-20T04:21:17.916Z,23.60
2023-03-20T04:23:44.589Z,23.43
2023-03-20T04:26:11.312Z,21.87
2023-03-20T04:28:37.968Z,22.87
2023-03-20T04:31:04.858Z,24.43
2023-03-20T04:33:31.521Z,30.67
2023-03-20T04:35:58.089Z,16.93
2023-03-20T04:38:24.909Z,26.03
2023-03-20T04:40:51.817Z,21.10
2023-03-20T04:43:18.320Z,18.83
2023-03-20T04:45:45.168Z,20.90
2023-03-20T04:48:12.363Z,19.07
2023-03-20T04:50:38.921Z,18.90
2023-03-20T04:53:06.025Z,32.10
2023-03-20T04:55:32.579Z,26.50
2023-03-20T04:57:59.121Z,24.37
2023-03-20T05:00:26.266Z,20.40
2023-03-20T05:02:52.864Z,21.57
2023-03-20T05:05:19.421Z,19.57
2023-03-20T05:07:46.090Z,19.83
2023-03-20T05:10:12.668Z,21.37
2023-03-20T05:12:39.185Z,21.23
2023-03-20T05:15:06.147Z,22.33
2023-03-20T05:17:32.678Z,19.50
2023-03-20T05:20:00.029Z,24.13
2023-03-20T05:22:26.763Z,33.47
2023-03-20T05:24:53.282Z,27.27
2023-03-20T05:27:19.942Z,18.27
2023-03-20T05:29:46.496Z,18.90
2023-03-20T05:32:13.467Z,18.30
2023-03-20T05:34:40.428Z,24.23
2023-03-20T05:37:07.128Z,22.63
2023-03-20T05:39:33.634Z,22.80
2023-03-20T05:42:00.159Z,28.30
2023-03-20T05:44:26.861Z,21.30
2023-03-20T05:46:53.342Z,24.27
2023-03-20T05:49:20.039Z,23.67
2023-03-20T05:51:46.773Z,24.70
2023-03-20T05:54:13.387Z,23.53
2023-03-20T05:56:39.972Z,25.83
2023-03-20T05:59:06.652Z,23.73
2023-03-20T06:01:33.143Z,25.00
2023-03-20T06:03:59.835Z,18.77
2023-03-20T06:06:26.328Z,23.93
2023-03-20T06:08:52.866Z,22.00
2023-03-20T06:11:19.626Z,21.97
2023-03-20T06:13:46.118Z,26.60
2023-03-20T06:16:12.742Z,22.60
2023-03-20T06:18:39.551Z,23.80
2023-03-20T06:21:06.157Z,24.50
2023-03-20T06:23:32.970Z,27.80
2023-03-20T06:25:59.466Z,31.13
2023-03-20T06:28:26.295Z,26.33
2023-03-20T06:30:53.457Z,32.07
2023-03-20T06:33:20.603Z,23.27
2023-03-20T06:35:48.292Z,22.63
2023-03-20T06:38:14.964Z,23.60
2023-03-20T06:40:41.785Z,27.93
2023-03-20T06:43:08.344Z,27.57
2023-03-20T06:45:35.097Z,27.77
2023-03-20T06:48:01.961Z,37.03
2023-03-20T06:50:28.517Z,19.40
2023-03-20T06:52:55.020Z,25.37
2023-03-20T06:55:21.648Z,23.57
2023-03-20T06:57:48.171Z,25.30
2023-03-20T07:00:15.240Z,23.97
2023-03-20T07:02:41.827Z,24.60
2023-03-20T07:05:09.204Z,23.60
2023-03-20T07:07:36.089Z,24.53
2023-03-20T07:10:04.655Z,26.47
2023-03-20T07:12:31.272Z,29.10
2023-03-20T07:14:57.931Z,22.63
2023-03-20T07:17:24.529Z,27.60
2023-03-20T07:19:51.153Z,32.50
2023-03-20T07:22:36.131Z,27.70
2023-03-20T07:25:03.782Z,28.40
2023-03-20T07:27:30.445Z,26.17
2023-03-20T07:29:56.930Z,22.53
2023-03-20T07:32:23.611Z,29.53
2023-03-20T07:34:50.540Z,28.00
2023-03-20T07:37:18.160Z,24.10
2023-03-20T07:39:44.897Z,27.50
2023-03-20T07:42:11.593Z,27.73
2023-03-20T07:44:38.270Z,27.37
2023-03-20T07:47:06.274Z,24.77
2023-03-20T07:49:33.433Z,22.13
2023-03-20T07:52:00.100Z,27.93
2023-03-20T07:54:26.817Z,27.10
2023-03-20T07:56:53.863Z,23.83
2023-03-20T07:59:21.412Z,22.27
2023-03-20T08:01:47.981Z,22.73
2023-03-20T08:04:14.578Z,28.13
2023-03-20T08:06:41.646Z,31.27
2023-03-20T08:09:08.477Z,30.50
2023-03-20T08:11:35.032Z,30.23
2023-03-20T08:14:01.634Z,31.27
2023-03-20T08:16:28.225Z,23.03
2023-03-20T08:19:01.051Z,23.80
2023-03-20T08:21:31.723Z,23.43
2023-03-20T08:23:58.317Z,24.03
2023-03-20T08:26:25.357Z,23.40
2023-03-20T08:28:52.635Z,23.10
2023-03-20T08:31:19.526Z,23.30
2023-03-20T08:33:46.789Z,24.13
2023-03-20T08:36:15.512Z,24.73
2023-03-20T08:38:42.865Z,21.17
2023-03-20T08:41:09.434Z,24.80
2023-03-20T08:43:36.539Z,21.67
2023-03-20T08:46:03.423Z,26.10
2023-03-20T08:48:29.929Z,19.53
2023-03-20T08:50:56.558Z,21.90
2023-03-20T08:53:23.186Z,31.63
2023-03-20T08:55:51.140Z,25.90
2023-03-20T08:58:18.506Z,21.40
2023-03-20T09:00:45.497Z,20.93
2023-03-20T09:03:14.888Z,27.23
2023-03-20T09:05:44.027Z,26.53
2023-03-20T09:08:11.197Z,27.27
2023-03-20T09:10:38.062Z,25.73
2023-03-20T09:13:23.492Z,22.70
2023-03-20T09:15:52.191Z,17.27
2023-03-20T09:18:19.931Z,21.40
2023-03-20T09:20:47.784Z,20.53
2023-03-20T09:23:14.316Z,22.93
2023-03-20T09:25:40.928Z,19.97
2023-03-20T09:28:07.498Z,17.83
2023-03-20T09:30:34.477Z,19.70
2023-03-20T09:33:01.482Z,14.63
2023-03-20T09:35:28.090Z,11.87
2023-03-20T09:37:54.869Z,13.17
2023-03-20T09:40:30.876Z,13.33
2023-03-20T09:43:02.783Z,13.57
2023-03-20T09:45:59.019Z,12.50
2023-03-20T09:48:30.330Z,8.10
2023-03-20T09:51:11.268Z,11.20
2023-03-20T09:53:41.101Z,12.90
2023-03-20T09:56:16.171Z,15.57
2023-03-20T09:58:43.258Z,10.17
2023-03-20T10:01:13.751Z,10.03
2023-03-20T10:04:00.902Z,12.17
2023-03-20T10:06:27.633Z,10.40
2023-03-20T10:08:55.310Z,12.23
2023-03-20T10:11:38.563Z,11.67
2023-03-20T10:14:18.711Z,13.47
2023-03-20T10:17:09.626Z,12.43
2023-03-20T10:19:44.466Z,8.80
2023-03-20T10:22:22.246Z,10.33
2023-03-20T10:24:54.501Z,17.33
2023-03-20T10:27:28.302Z,8.23
2023-03-20T10:30:07.559Z,13.57
2023-03-20T10:32:41.166Z,12.87
2023-03-20T10:35:13.990Z,12.33
2023-03-20T10:38:00.995Z,9.00
2023-03-20T10:40:30.382Z,10.17
2023-03-20T10:43:00.749Z,8.33
2023-03-20T10:45:54.330Z,6.20
2023-03-20T10:48:31.446Z,10.33
2023-03-20T10:51:02.070Z,12.17
2023-03-20T10:53:32.858Z,14.63
2023-03-20T10:56:03.771Z,8.60
2023-03-20T10:58:34.298Z,9.07
2023-03-20T11:01:00.989Z,10.07
2023-03-20T11:03:30.285Z,8.20
2023-03-20T11:06:10.628Z,12.50
2023-03-20T11:08:40.872Z,10.47
2023-03-20T11:11:07.694Z,14.00
2023-03-20T11:13:41.707Z,8.07
2023-03-20T11:16:33.162Z,18.33
2023-03-20T11:19:10.672Z,11.07
2023-03-20T11:21:46.539Z,7.93
2023-03-20T11:24:43.060Z,5.27
2023-03-20T11:27:12.553Z,7.87
2023-03-20T11:29:41.231Z,8.63
2023-03-20T11:32:32.583Z,9.00
2023-03-20T11:35:11.272Z,6.83
2023-03-20T11:37:44.909Z,11.93
2023-03-20T11:40:25.985Z,6.60
2023-03-20T11:42:54.650Z,8.93
2023-03-20T11:45:21.427Z,9.53
2023-03-20T11:47:52.244Z,9.83
2023-03-20T11:50:30.323Z,9.33
2023-03-20T11:52:57.224Z,9.50
2023-03-20T11:55:29.170Z,9.43
2023-03-20T11:57:58.059Z,15.20
2023-03-20T12:00:29.725Z,12.67
2023-03-20T12:02:56.316Z,10.00
2023-03-20T12:05:30.606Z,10.07
2023-03-20T12:08:01.335Z,13.00
2023-03-20T12:10:33.470Z,9.83
2023-03-20T12:13:02.823Z,8.37
2023-03-20T12:15:32.942Z,8.20
2023-03-20T12:18:03.716Z,11.30
2023-03-20T12:20:47.365Z,11.33
2023-03-20T12:23:21.474Z,12.97
2023-03-20T12:25:57.836Z,15.83
2023-03-20T12:28:41.317Z,14.57
2023-03-20T12:31:24.171Z,8.40
2023-03-20T12:34:18.456Z,13.40
2023-03-20T12:36:50.501Z,6.57
2023-03-20T12:39:24.152Z,14.07
2023-03-20T12:42:16.651Z,8.77
2023-03-20T12:44:50.904Z,11.60
2023-03-20T12:47:40.041Z,9.63
2023-03-20T12:50:25.264Z,12.23
2023-03-20T12:53:26.585Z,10.63
2023-03-20T12:56:25.476Z,8.13
2023-03-20T12:59:20.029Z,9.00
2023-03-20T13:01:57.854Z,8.40
2023-03-20T13:04:27.375Z,11.20
2023-03-20T13:07:00.452Z,11.10
2023-03-20T13:09:48.876Z,10.40
2023-03-20T13:12:36.506Z,10.97
2023-03-20T13:15:22.633Z,11.77
2023-03-20T13:18:04.508Z,7.90
2023-03-20T13:20:36.958Z,12.20
2023-03-20T13:23:09.668Z,7.57
2023-03-20T13:26:00.798Z,6.33
2023-03-20T13:28:46.226Z,7.27
2023-03-20T13:31:34.009Z,8.10
2023-03-20T13:34:22.442Z,8.77
2023-03-20T13:36:54.156Z,6.27
2023-03-20T13:39:25.494Z,6.27
2023-03-20T13:41:52.927Z,7.20
2023-03-20T13:44:21.255Z,8.40
2023-03-20T13:46:51.914Z,14.30
2023-03-20T13:49:27.331Z,13.00
2023-03-20T13:52:02.715Z,7.80
2023-03-20T13:55:11.692Z,10.63
2023-03-20T13:57:56.649Z,9.30
2023-03-20T14:00:34.257Z,8.57
2023-03-20T14:03:09.901Z,11.43
2023-03-20T14:05:39.086Z,8.30
2023-03-20T14:08:33.439Z,9.93
2023-03-20T14:11:07.633Z,6.07
2023-03-20T14:13:34.832Z,6.57
2023-03-20T14:16:03.542Z,9.10
2023-03-20T14:18:31.372Z,7.53
2023-03-20T14:21:02.787Z,4.50
2023-03-20T14:23:45.066Z,8.63
2023-03-20T14:26:20.329Z,4.90
2023-03-20T14:29:20.402Z,21.53
2023-03-20T14:31:50.598Z,5.43
2023-03-20T14:34:22.140Z,6.90
2023-03-20T14:36:50.735Z,9.90
2023-03-20T14:39:36.237Z,6.73
2023-03-20T14:42:24.418Z,6.63
2023-03-20T14:45:08.755Z,5.20
2023-03-20T14:48:03.555Z,4.97
2023-03-20T14:50:33.171Z,7.47
2023-03-20T14:53:12.865Z,5.30
2023-03-20T14:55:57.180Z,9.43
2023-03-20T14:59:11.489Z,16.57
2023-03-20T15:01:38.132Z,5.97
2023-03-20T15:04:29.738Z,9.60
2023-03-20T15:07:05.220Z,7.00
2023-03-20T15:09:35.717Z,8.07
2023-03-20T15:12:06.750Z,7.57
2023-03-20T15:14:41.603Z,6.10
2023-03-20T15:17:27.396Z,19.60
2023-03-20T15:20:15.703Z,36.00
2023-03-20T15:22:57.976Z,24.93
2023-03-20T15:25:31.259Z,35.40
2023-03-20T15:27:57.981Z,11.37
2023-03-20T15:30:25.090Z,18.67
2023-03-20T15:32:55.141Z,10.00
2023-03-20T15:35:26.127Z,12.40
2023-03-20T15:37:55.954Z,12.43
2023-03-20T15:40:25.727Z,13.33
2023-03-20T15:42:56.543Z,10.83
2023-03-20T15:45:29.302Z,14.87
2023-03-20T15:48:05.828Z,14.30
2023-03-20T15:50:38.645Z,9.90
2023-03-20T15:53:08.207Z,12.83
2023-03-20T15:55:35.041Z,10.00
2023-03-20T15:58:02.260Z,16.37
2023-03-20T16:00:39.168Z,10.33
2023-03-20T16:03:08.375Z,9.20
2023-03-20T16:05:35.488Z,9.90
2023-03-20T16:08:34.544Z,8.50
2023-03-20T16:11:04.595Z,17.10
2023-03-20T16:13:39.146Z,17.87
2023-03-20T16:16:10.226Z,15.43
2023-03-20T16:18:39.000Z,10.80
2023-03-20T16:21:12.858Z,14.83
2023-03-20T16:23:42.177Z,12.70
2023-03-20T16:26:15.989Z,10.87
2023-03-20T16:28:42.714Z,12.07
2023-03-20T16:31:13.736Z,17.90
2023-03-20T16:33:40.745Z,17.23
2023-03-20T16:36:07.890Z,23.43
2023-03-20T16:38:36.328Z,14.47
2023-03-20T16:41:30.068Z,16.87
2023-03-20T16:43:57.073Z,12.60
2023-03-20T16:46:28.275Z,18.13
2023-03-20T16:49:02.326Z,9.93
2023-03-20T16:51:32.139Z,10.43
2023-03-20T16:54:01.442Z,8.00
2023-03-20T16:56:33.572Z,9.70
2023-03-20T16:59:10.101Z,22.50
2023-03-20T17:01:41.321Z,11.43
2023-03-20T17:04:30.127Z,9.23
2023-03-20T17:07:00.049Z,13.10
2023-03-20T17:09:29.461Z,6.77
2023-03-20T17:12:20.521Z,8.53
2023-03-20T17:14:47.031Z,11.03
2023-03-20T17:17:19.732Z,7.60
2023-03-20T17:19:47.539Z,6.00
2023-03-20T17:22:22.686Z,8.80
2023-03-20T17:24:49.823Z,7.07
2023-03-20T17:27:18.182Z,7.23
2023-03-20T17:29:45.692Z,9.53
2023-03-20T17:32:14.494Z,6.10
2023-03-20T17:34:41.327Z,9.83
2023-03-20T17:37:12.623Z,15.37
2023-03-20T17:39:39.177Z,7.93
2023-03-20T17:42:30.762Z,14.13
2023-03-20T17:44:58.665Z,11.80
2023-03-20T17:47:26.890Z,11.60
2023-03-20T17:49:54.591Z,17.13
2023-03-20T17:52:23.740Z,7.40
2023-03-20T17:54:50.912Z,22.73
2023-03-20T17:57:32.741Z,25.80
2023-03-20T18:00:00.597Z,32.90
2023-03-20T18:02:27.467Z,23.83
2023-03-20T18:04:54.321Z,11.90
2023-03-20T18:07:20.849Z,7.10
2023-03-20T18:09:49.202Z,9.27
2023-03-20T18:12:17.576Z,9.40
2023-03-20T18:14:45.473Z,12.30
2023-03-20T18:17:13.516Z,12.33
2023-03-20T18:19:40.380Z,12.20
2023-03-20T18:22:07.165Z,15.13
2023-03-20T18:24:34.601Z,11.27
2023-03-20T18:27:01.175Z,15.37
2023-03-20T18:29:27.754Z,9.93
2023-03-20T18:31:54.317Z,10.60
2023-03-20T18:34:21.319Z,15.40
2023-03-20T18:36:51.252Z,15.03
2023-03-20T18:39:23.382Z,13.40
2023-03-20T18:41:50.793Z,10.03
2023-03-20T18:44:17.609Z,16.63
2023-03-20T18:46:44.300Z,15.43
2023-03-20T18:49:15.625Z,14.40
2023-03-20T18:51:42.155Z,21.70
2023-03-20T18:54:08.855Z,14.70
2023-03-20T18:56:38.052Z,11.50
2023-03-20T18:59:08.123Z,12.17
2023-03-20T19:01:36.099Z,8.47
2023-03-20T19:04:03.101Z,16.80
2023-03-20T19:06:32.634Z,15.83
2023-03-20T19:09:05.570Z,14.87
2023-03-20T19:11:32.282Z,11.60
2023-03-20T19:13:59.012Z,15.97
2023-03-20T19:16:31.923Z,10.97
2023-03-20T19:19:01.597Z,12.17
2023-03-20T19:21:29.213Z,12.20
2023-03-20T19:23:57.876Z,10.57
2023-03-20T19:26:26.641Z,17.47
2023-03-20T19:28:54.870Z,23.10
2023-03-20T19:31:22.346Z,21.07
2023-03-20T19:33:49.379Z,20.93
2023-03-20T19:36:36.596Z,12.07
2023-03-20T19:39:09.250Z,12.20
2023-03-20T19:41:35.979Z,9.93
2023-03-20T19:44:02.579Z,13.47
2023-03-20T19:46:39.737Z,10.37
2023-03-20T19:49:19.610Z,10.53
2023-03-20T19:51:46.755Z,15.43
2023-03-20T19:54:13.432Z,14.33
2023-03-20T19:56:40.450Z,16.63
2023-03-20T19:59:07.212Z,13.77
2023-03-20T20:01:33.760Z,11.20
2023-03-20T20:04:00.436Z,17.43
2023-03-20T20:06:32.233Z,12.17
2023-03-20T20:09:01.099Z,15.43
2023-03-20T20:11:27.936Z,14.10
2023-03-20T20:14:06.790Z,29.87
2023-03-20T20:16:40.056Z,26.10
2023-03-20T20:19:07.224Z,31.37
2023-03-20T20:24:20.438Z,24.80
2023-03-20T20:26:55.526Z,21.63
2023-03-20T20:29:26.898Z,26.83
2023-03-20T20:31:56.469Z,18.10
2023-03-20T20:35:26.461Z,18.17
2023-03-20T20:39:58.540Z,8.20
2023-03-20T20:42:25.743Z,9.93
2023-03-20T20:45:08.409Z,11.97
2023-03-20T20:47:35.016Z,6.90
2023-03-20T20:50:04.165Z,16.90
2023-03-20T20:52:35.006Z,11.90
2023-03-20T20:55:18.856Z,13.33
2023-03-20T20:57:49.416Z,10.00
2023-03-20T21:00:16.747Z,14.23
2023-03-20T21:02:43.533Z,16.27
2023-03-20T21:05:12.603Z,9.60
2023-03-20T21:07:42.088Z,16.93
2023-03-20T21:10:09.935Z,11.90
2023-03-20T21:12:48.421Z,7.97
2023-03-20T21:15:22.786Z,9.93
2023-03-20T21:17:59.901Z,10.33
2023-03-20T21:20:27.962Z,13.33
2023-03-20T21:22:54.540Z,11.63
2023-03-20T21:25:36.355Z,18.67
2023-03-20T21:28:05.173Z,12.47
2023-03-20T21:30:31.710Z,12.07
2023-03-20T21:32:58.439Z,8.67
2023-03-20T21:35:26.559Z,13.57
2023-03-20T21:40:39.987Z,11.70
2023-03-20T21:43:06.696Z,11.00
2023-03-20T21:48:52.212Z,20.17
2023-03-20T21:57:23.115Z,19.17
2023-03-20T22:02:23.614Z,15.03
2023-03-20T22:05:42.039Z,16.40
2023-03-20T22:08:26.681Z,12.10
2023-03-20T22:11:20.212Z,11.57
2023-03-20T22:14:12.710Z,4.67
2023-03-20T22:16:57.744Z,12.43
2023-03-20T22:22:19.080Z,11.13
2023-03-20T22:30:52.595Z,21.10
2023-03-20T22:33:44.700Z,15.83
2023-03-20T22:36:33.229Z,15.50
2023-03-20T22:39:14.008Z,12.83
2023-03-20T22:44:41.693Z,16.03
2023-03-20T22:46:45.629Z,12.90
2023-03-20T22:49:13.537Z,10.30
2023-03-20T22:51:52.131Z,10.10
2023-03-20T22:54:26.724Z,12.97
2023-03-20T22:56:53.228Z,11.20
2023-03-20T22:59:19.723Z,14.33
2023-03-20T23:01:46.414Z,12.13
2023-03-20T23:04:13.032Z,9.93
2023-03-20T23:06:39.710Z,12.50
2023-03-20T23:09:15.339Z,11.43
2023-03-20T23:11:42.941Z,16.30
2023-03-20T23:14:26.616Z,14.13
2023-03-20T23:16:55.432Z,15.97
2023-03-20T23:19:22.062Z,16.03
2023-03-20T23:21:48.570Z,11.23
2023-03-20T23:24:15.344Z,13.63
2023-03-20T23:26:41.967Z,12.30
2023-03-20T23:29:08.572Z,17.27
2023-03-20T23:31:35.576Z,11.73
2023-03-20T23:34:02.068Z,13.70
2023-03-20T23:36:36.404Z,17.40
2023-03-20T23:39:06.194Z,18.73
2023-03-20T23:42:01.802Z,22.10
2023-03-20T23:44:19.701Z,11.33
2023-03-20T23:46:48.175Z,14.33
2023-03-20T23:49:15.035Z,13.63
2023-03-20T23:51:41.583Z,15.80
2023-03-20T23:54:08.130Z,11.90
2023-03-20T23:56:34.767Z,12.10
2023-03-20T23:59:11.464Z,19.00
